Time;durP1;ratioP1;P1;durP2;ratioP2;P2;SDS_P1;SDS_P2;PMS_P1;PMS_P2;Temp;Humidity;BMP_temperature;BMP_pressure;BME280_temperature;BME280_humidity;BME280_pressure;Samples;Min_cycle;Max_cycle;Signal;HPM_P1;HPM_P2
2021/12/02 00:00:36;;;;;;;3.47;2.40;;;7.90;99.90;;;;;;5050454;28;20219;-69
2021/12/02 00:03:07;;;;;;;3.75;2.00;;;7.90;99.90;;;;;;5049947;28;20210;-69
2021/12/02 00:05:35;;;;;;;1.77;1.52;;;7.90;99.90;;;;;;5049890;28;20196;-68
2021/12/02 00:08:04;;;;;;;2.95;1.85;;;8.00;99.90;;;;;;5050368;28;20196;-68
2021/12/02 00:10:34;;;;;;;4.97;2.35;;;8.00;99.90;;;;;;5049994;28;20258;-68
2021/12/02 00:13:03;;;;;;;2.92;1.90;;;7.90;99.90;;;;;;5049363;28;20619;-71
2021/12/02 00:15:36;;;;;;;2.35;1.88;;;7.90;99.90;;;;;;5050391;28;20220;-69
2021/12/02 00:21:06;;;;;;;3.05;1.90;;;7.80;99.90;;;;;;5048530;28;20258;-68
2021/12/02 00:23:37;;;;;;;2.45;1.00;;;7.70;99.90;;;;;;5050530;28;20207;-68
2021/12/02 00:26:09;;;;;;;3.40;1.50;;;7.50;99.90;;;;;;5050427;28;20657;-68
2021/12/02 00:28:39;;;;;;;3.78;1.10;;;7.40;99.90;;;;;;5051065;28;20275;-67
2021/12/02 00:31:13;;;;;;;2.03;1.20;;;7.30;99.90;;;;;;5053876;28;20294;-67
2021/12/02 00:33:45;;;;;;;4.72;1.15;;;7.30;99.90;;;;;;5059448;28;20203;-67
2021/12/02 00:36:14;;;;;;;4.03;0.93;;;7.30;99.90;;;;;;5048926;28;20722;-68
2021/12/02 00:38:43;;;;;;;1.38;0.70;;;7.20;99.90;;;;;;5039561;28;20275;-67
2021/12/02 00:41:12;;;;;;;1.48;0.98;;;7.30;99.90;;;;;;5049996;28;20301;-68
2021/12/02 00:43:41;;;;;;;1.83;1.00;;;7.20;99.90;;;;;;5050780;28;20288;-69
2021/12/02 00:46:12;;;;;;;2.95;1.33;;;7.20;99.90;;;;;;5050477;28;20687;-68
2021/12/02 00:48:41;;;;;;;1.25;0.95;;;7.30;99.90;;;;;;5050713;28;20207;-67
2021/12/02 00:51:10;;;;;;;1.00;0.90;;;7.20;99.90;;;;;;5050932;28;20646;-67
2021/12/02 00:53:42;;;;;;;1.60;1.02;;;7.30;99.90;;;;;;5054268;28;20199;-67
2021/12/02 00:56:12;;;;;;;2.30;1.10;;;7.40;99.90;;;;;;5053749;28;20660;-67
2021/12/02 00:58:40;;;;;;;1.42;1.02;;;7.30;99.90;;;;;;5054281;28;20232;-68
2021/12/02 01:01:10;;;;;;;5.82;1.10;;;7.40;99.90;;;;;;5053731;28;20306;-67
2021/12/02 01:03:39;;;;;;;1.42;1.00;;;7.30;99.90;;;;;;5065179;28;20204;-67
2021/12/02 01:06:08;;;;;;;1.70;1.10;;;7.30;99.90;;;;;;5073864;28;20273;-67
2021/12/02 01:08:39;;;;;;;1.00;0.90;;;7.10;99.90;;;;;;5062735;28;20203;-67
2021/12/02 01:11:10;;;;;;;1.73;0.80;;;7.10;99.90;;;;;;5053523;28;20211;-67
2021/12/02 01:13:38;;;;;;;1.02;0.90;;;7.00;99.90;;;;;;5053923;28;20283;-67
2021/12/02 01:16:06;;;;;;;0.80;0.70;;;6.90;99.90;;;;;;5053600;28;20251;-67
2021/12/02 01:18:36;;;;;;;1.20;0.88;;;6.80;99.90;;;;;;5053485;28;20292;-67
2021/12/02 01:21:05;;;;;;;0.60;0.50;;;6.70;99.90;;;;;;5053483;28;20747;-68
2021/12/02 01:23:34;;;;;;;0.93;0.70;;;6.70;99.90;;;;;;5053062;28;20196;-68
2021/12/02 01:26:05;;;;;;;1.65;0.80;;;6.50;99.90;;;;;;5051604;28;20266;-68
2021/12/02 01:28:34;;;;;;;1.77;0.77;;;6.50;99.90;;;;;;5052049;28;20307;-68
2021/12/02 01:31:02;;;;;;;0.90;0.80;;;6.50;99.90;;;;;;5052258;28;20302;-68
2021/12/02 01:33:30;;;;;;;1.50;0.90;;;6.50;99.90;;;;;;5054066;28;20203;-68
2021/12/02 01:36:01;;;;;;;0.93;0.60;;;6.40;99.90;;;;;;5070037;28;20208;-68
2021/12/02 01:38:31;;;;;;;1.13;0.90;;;6.50;99.90;;;;;;5054084;28;20219;-68
2021/12/02 01:41:01;;;;;;;1.23;1.00;;;6.50;99.90;;;;;;5052925;28;20319;-67
2021/12/02 01:43:45;;;;;;;1.33;0.90;;;6.60;99.90;;;;;;5053368;28;20615;-68
2021/12/02 01:46:15;;;;;;;1.35;0.75;;;6.70;99.90;;;;;;5053253;28;20278;-68
2021/12/02 01:48:47;;;;;;;0.85;0.60;;;6.80;99.90;;;;;;5051409;28;20235;-68
2021/12/02 01:51:20;;;;;;;1.65;1.00;;;6.80;99.90;;;;;;5043984;28;20271;-69
2021/12/02 01:53:51;;;;;;;1.50;0.90;;;6.90;99.90;;;;;;5033416;28;20224;-68
2021/12/02 01:56:20;;;;;;;2.00;0.90;;;7.00;99.90;;;;;;5032995;28;20240;-68
2021/12/02 01:58:51;;;;;;;2.35;0.80;;;7.00;99.90;;;;;;5033160;28;20279;-68
2021/12/02 02:01:23;;;;;;;1.08;0.90;;;7.20;99.90;;;;;;5042149;28;20269;-68
2021/12/02 02:03:53;;;;;;;2.45;1.67;;;7.20;99.90;;;;;;5051254;28;20285;-68
2021/12/02 02:06:29;;;;;;;1.80;0.93;;;7.30;99.90;;;;;;5050950;28;20279;-68
2021/12/02 02:08:58;;;;;;;0.85;0.80;;;7.30;99.90;;;;;;5052229;28;20557;-68
2021/12/02 02:11:28;;;;;;;1.48;0.98;;;7.10;99.90;;;;;;5051097;28;20866;-68
2021/12/02 02:13:57;;;;;;;2.80;0.82;;;6.90;99.90;;;;;;5051040;28;20227;-68
2021/12/02 02:16:26;;;;;;;1.45;1.05;;;6.90;99.90;;;;;;5050707;28;20299;-68
2021/12/02 02:18:55;;;;;;;2.55;1.10;;;7.00;99.90;;;;;;5051592;28;20739;-68
2021/12/02 02:21:24;;;;;;;1.15;1.08;;;6.80;99.90;;;;;;5050563;28;20303;-68
2021/12/02 02:23:56;;;;;;;1.35;1.25;;;6.50;99.90;;;;;;5051707;28;20223;-68
2021/12/02 02:26:27;;;;;;;6.10;1.70;;;6.20;99.90;;;;;;5050325;28;20720;-68
2021/12/02 02:28:55;;;;;;;3.53;2.10;;;6.30;99.90;;;;;;5051601;28;20223;-68
2021/12/02 02:31:23;;;;;;;2.13;1.50;;;6.30;99.90;;;;;;5049897;28;20598;-68
2021/12/02 02:33:53;;;;;;;1.30;1.20;;;6.20;99.90;;;;;;5050222;28;20195;-67
2021/12/02 02:36:25;;;;;;;3.70;1.20;;;6.20;99.90;;;;;;5049725;28;20593;-69
2021/12/02 02:38:56;;;;;;;5.22;1.45;;;6.20;99.90;;;;;;5048940;28;20215;-69
2021/12/02 02:41:26;;;;;;;8.40;2.03;;;6.30;99.90;;;;;;5052244;28;20236;-68
2021/12/02 02:43:57;;;;;;;3.20;0.95;;;6.50;99.90;;;;;;5050552;28;20227;-69
2021/12/02 02:46:27;;;;;;;2.05;1.10;;;6.60;99.90;;;;;;5050914;28;20224;-69
2021/12/02 02:48:57;;;;;;;2.97;0.80;;;6.70;99.90;;;;;;5050176;28;20611;-69
2021/12/02 02:51:27;;;;;;;3.58;1.98;;;6.60;99.90;;;;;;5047445;28;20318;-69
2021/12/02 02:53:56;;;;;;;3.22;1.17;;;6.70;99.90;;;;;;5051817;28;20608;-69
2021/12/02 02:56:29;;;;;;;5.45;1.52;;;6.50;99.90;;;;;;5050604;28;20630;-69
2021/12/02 02:59:05;;;;;;;1.55;1.40;;;6.30;99.90;;;;;;5048808;28;20703;-69
2021/12/02 03:01:44;;;;;;;5.32;1.40;;;6.20;99.90;;;;;;5049033;28;20254;-69
2021/12/02 03:04:24;;;;;;;4.32;0.95;;;6.40;99.90;;;;;;5050648;28;20204;-69
2021/12/02 03:06:56;;;;;;;3.10;0.95;;;6.50;99.90;;;;;;5036637;28;20215;-69
2021/12/02 03:09:39;;;;;;;6.55;1.23;;;6.60;99.90;;;;;;5050534;28;20727;-69
2021/12/02 03:12:12;;;;;;;5.05;1.15;;;6.50;99.90;;;;;;5050091;28;20692;-69
2021/12/02 03:14:53;;;;;;;2.80;0.77;;;6.20;99.90;;;;;;5050800;28;20696;-69
2021/12/02 03:17:19;;;;;;;2.10;0.63;;;6.40;99.90;;;;;;5049234;28;20255;-69
2021/12/02 03:19:48;;;;;;;2.65;1.17;;;6.20;99.90;;;;;;5049023;28;20220;-70
2021/12/02 03:22:17;;;;;;;2.33;0.90;;;6.30;99.90;;;;;;5051321;28;20255;-70
2021/12/02 03:24:45;;;;;;;3.28;1.05;;;6.30;99.90;;;;;;5051150;28;20235;-69
2021/12/02 03:27:13;;;;;;;2.15;0.85;;;6.40;99.90;;;;;;5069159;28;20191;-69
2021/12/02 03:29:41;;;;;;;3.20;1.38;;;6.40;99.90;;;;;;5071398;28;20227;-69
2021/12/02 03:32:11;;;;;;;2.95;1.30;;;6.40;99.90;;;;;;5063592;28;20306;-69
2021/12/02 03:34:40;;;;;;;2.00;0.93;;;6.50;99.90;;;;;;5063118;28;20237;-69
2021/12/02 03:37:09;;;;;;;2.92;0.93;;;6.50;99.90;;;;;;5071401;28;20221;-68
2021/12/02 03:39:39;;;;;;;5.55;1.13;;;6.60;99.90;;;;;;5050868;28;20298;-69
2021/12/02 03:42:07;;;;;;;3.25;1.02;;;6.60;99.90;;;;;;5050872;28;20281;-68
2021/12/02 03:44:35;;;;;;;1.67;0.70;;;6.70;99.90;;;;;;5051436;28;20639;-69
2021/12/02 03:47:03;;;;;;;3.00;1.08;;;6.60;99.90;;;;;;5051280;28;20220;-69
2021/12/02 03:49:32;;;;;;;3.60;1.50;;;6.60;99.90;;;;;;5051254;28;20188;-69
2021/12/02 03:51:59;;;;;;;1.63;1.00;;;6.70;99.90;;;;;;5051128;28;20250;-70
2021/12/02 03:54:27;;;;;;;2.17;0.90;;;6.60;99.90;;;;;;5051029;28;20621;-69
2021/12/02 03:56:57;;;;;;;2.15;1.40;;;6.70;99.90;;;;;;5051042;28;20269;-69
2021/12/02 03:59:24;;;;;;;2.85;1.10;;;6.80;99.90;;;;;;5051259;28;20195;-69
2021/12/02 04:01:52;;;;;;;2.13;1.27;;;6.80;99.90;;;;;;5055499;28;20211;-70
2021/12/02 04:04:20;;;;;;;4.88;1.52;;;6.80;99.90;;;;;;5055663;28;20752;-70
2021/12/02 04:06:48;;;;;;;2.75;1.30;;;6.70;99.90;;;;;;5050807;28;20652;-69
2021/12/02 04:09:19;;;;;;;6.70;1.27;;;6.70;99.90;;;;;;5050948;28;20261;-68
2021/12/02 04:11:54;;;;;;;3.45;1.30;;;6.70;99.90;;;;;;5050986;28;20779;-70
2021/12/02 04:14:26;;;;;;;3.97;1.27;;;6.60;99.90;;;;;;5056207;28;20629;-69
2021/12/02 04:16:57;;;;;;;1.40;1.17;;;6.50;99.90;;;;;;5070754;28;20302;-69
2021/12/02 04:19:26;;;;;;;4.75;1.33;;;6.40;99.90;;;;;;5071287;28;20246;-68
2021/12/02 04:21:54;;;;;;;8.65;1.58;;;6.30;99.90;;;;;;5048488;28;20251;-69
2021/12/02 04:24:22;;;;;;;3.95;1.83;;;6.10;99.90;;;;;;5045996;28;20618;-70
2021/12/02 04:26:50;;;;;;;2.20;1.50;;;6.00;99.90;;;;;;5051346;28;20226;-69
2021/12/02 04:29:18;;;;;;;6.65;1.50;;;5.90;99.90;;;;;;5054716;28;20196;-68
2021/12/02 04:31:48;;;;;;;4.05;1.38;;;5.80;99.90;;;;;;5053125;28;20254;-68
2021/12/02 04:34:17;;;;;;;2.75;1.10;;;5.70;99.90;;;;;;5060148;28;20195;-68
2021/12/02 04:36:45;;;;;;;5.75;2.13;;;5.60;99.90;;;;;;5049624;28;20220;-69
2021/12/02 04:39:13;;;;;;;3.60;1.63;;;5.70;99.90;;;;;;5054587;28;20292;-68
2021/12/02 04:41:41;;;;;;;4.68;1.15;;;5.50;99.90;;;;;;5051340;28;20271;-69
2021/12/02 04:44:09;;;;;;;2.75;1.40;;;5.40;99.90;;;;;;5054188;28;20765;-68
2021/12/02 04:46:37;;;;;;;2.33;1.10;;;5.50;99.90;;;;;;5054152;28;20216;-69
2021/12/02 04:49:06;;;;;;;2.97;1.13;;;5.50;99.90;;;;;;5054385;28;20207;-68
2021/12/02 04:51:34;;;;;;;7.53;1.42;;;5.50;99.90;;;;;;5053903;28;20254;-68
2021/12/02 04:54:02;;;;;;;2.67;1.10;;;5.60;99.90;;;;;;5054488;28;20200;-69
2021/12/02 04:56:30;;;;;;;4.72;1.35;;;5.50;99.90;;;;;;5054380;28;20224;-67
2021/12/02 04:58:58;;;;;;;2.50;0.93;;;5.50;99.90;;;;;;5054211;28;20232;-69
2021/12/02 05:01:26;;;;;;;2.28;1.13;;;5.50;99.90;;;;;;5058975;28;20251;-69
2021/12/02 05:03:54;;;;;;;4.72;0.98;;;5.60;99.90;;;;;;5049817;28;20242;-66
2021/12/02 05:06:23;;;;;;;5.28;1.40;;;5.60;99.90;;;;;;5053517;28;20227;-65
2021/12/02 05:08:51;;;;;;;2.00;0.90;;;5.40;99.90;;;;;;5053910;28;20200;-68
2021/12/02 05:11:19;;;;;;;2.35;0.80;;;5.50;99.90;;;;;;5053608;28;20231;-68
2021/12/02 05:13:47;;;;;;;2.72;1.02;;;5.40;99.90;;;;;;5054194;28;20239;-68
2021/12/02 05:16:15;;;;;;;6.38;0.98;;;5.50;99.90;;;;;;5053848;28;20231;-68
2021/12/02 05:18:43;;;;;;;2.38;0.73;;;5.70;99.90;;;;;;5053794;28;20251;-67
2021/12/02 05:21:11;;;;;;;4.15;0.80;;;5.50;99.90;;;;;;5053126;28;20251;-67
2021/12/02 05:23:40;;;;;;;3.50;0.68;;;5.60;99.90;;;;;;5043049;28;20230;-67
2021/12/02 05:26:08;;;;;;;1.70;0.80;;;5.60;99.90;;;;;;5053651;28;20227;-67
2021/12/02 05:28:36;;;;;;;1.95;0.90;;;5.60;99.90;;;;;;5053552;28;20231;-68
2021/12/02 05:31:04;;;;;;;0.80;0.60;;;5.50;99.90;;;;;;5053322;28;20239;-68
2021/12/02 05:33:32;;;;;;;2.53;0.88;;;5.50;99.90;;;;;;5063384;28;20200;-66
2021/12/02 05:36:00;;;;;;;5.80;1.00;;;5.60;99.90;;;;;;5073569;28;20226;-68
2021/12/02 05:38:27;;;;;;;2.88;0.95;;;5.40;99.90;;;;;;5052250;28;20299;-68
2021/12/02 05:40:57;;;;;;;1.70;1.02;;;5.20;99.90;;;;;;5052793;28;20681;-69
2021/12/02 05:43:25;;;;;;;1.95;0.60;;;5.30;99.90;;;;;;5051709;28;20617;-68
2021/12/02 05:45:53;;;;;;;1.90;0.98;;;5.20;99.90;;;;;;5050662;28;20196;-68
2021/12/02 05:48:20;;;;;;;1.70;0.98;;;5.30;99.90;;;;;;5050865;28;20275;-68
2021/12/02 05:50:49;;;;;;;3.15;1.10;;;5.30;99.90;;;;;;5050519;28;20648;-67
2021/12/02 05:53:17;;;;;;;11.00;1.50;;;5.40;99.90;;;;;;5052469;28;20291;-68
2021/12/02 05:55:45;;;;;;;3.10;1.77;;;5.50;99.90;;;;;;5033157;28;20510;-68
2021/12/02 05:58:15;;;;;;;1.55;1.08;;;5.40;99.90;;;;;;5044083;28;20305;-68
2021/12/02 06:00:43;;;;;;;4.32;1.50;;;5.30;99.90;;;;;;5052892;28;20221;-68
2021/12/02 06:03:11;;;;;;;2.47;1.38;;;5.40;99.90;;;;;;5061086;28;20199;-69
2021/12/02 06:05:39;;;;;;;1.77;1.20;;;5.30;99.90;;;;;;5071908;28;20748;-69
2021/12/02 06:08:07;;;;;;;3.78;1.60;;;5.30;99.90;;;;;;5072907;28;20277;-68
2021/12/02 06:10:35;;;;;;;4.30;1.48;;;5.20;99.90;;;;;;5058651;28;20231;-68
2021/12/02 06:13:03;;;;;;;4.85;1.60;;;5.20;99.90;;;;;;5052790;28;20619;-67
2021/12/02 06:15:33;;;;;;;4.30;1.67;;;5.10;99.90;;;;;;5053008;28;20199;-68
2021/12/02 06:18:00;;;;;;;2.95;1.20;;;5.00;99.90;;;;;;5052354;28;20583;-68
2021/12/02 06:20:28;;;;;;;3.40;1.30;;;5.00;99.90;;;;;;5052449;28;20238;-66
2021/12/02 06:22:56;;;;;;;1.67;1.30;;;5.00;99.90;;;;;;5049867;28;20688;-68
2021/12/02 06:28:10;;;;;;;2.80;1.70;;;5.30;99.90;;;;;;5044546;28;20931;-70
2021/12/02 06:30:39;;;;;;;3.00;1.10;;;5.10;99.90;;;;;;5052167;28;20755;-70
2021/12/02 06:33:08;;;;;;;3.72;1.60;;;5.00;99.90;;;;;;5057074;28;20844;-70
2021/12/02 06:35:42;;;;;;;2.30;1.73;;;4.90;99.90;;;;;;5052001;28;20262;-69
2021/12/02 06:38:11;;;;;;;5.10;1.50;;;4.90;99.90;;;;;;5045755;28;20289;-70
2021/12/02 06:40:40;;;;;;;2.42;2.05;;;4.90;99.90;;;;;;5048592;28;20266;-69
2021/12/02 06:43:09;;;;;;;3.13;2.00;;;4.80;99.90;;;;;;5046662;28;20200;-69
2021/12/02 06:45:38;;;;;;;4.43;2.05;;;4.80;99.90;;;;;;5042184;28;20300;-70
2021/12/02 06:48:06;;;;;;;4.13;2.30;;;4.80;99.90;;;;;;5030740;28;20300;-70
2021/12/02 06:50:36;;;;;;;2.45;2.25;;;4.80;99.90;;;;;;5025919;28;20814;-69
2021/12/02 06:53:05;;;;;;;2.83;1.70;;;4.70;99.90;;;;;;5030457;28;20203;-70
2021/12/02 06:55:33;;;;;;;2.40;1.98;;;4.70;99.90;;;;;;5031646;28;20199;-69
2021/12/02 06:58:01;;;;;;;4.20;1.65;;;4.70;99.90;;;;;;5030175;28;20374;-70
2021/12/02 07:00:29;;;;;;;3.33;2.00;;;4.60;99.90;;;;;;5036663;28;20219;-68
2021/12/02 07:03:01;;;;;;;2.50;1.70;;;4.60;99.90;;;;;;5030900;28;20294;-68
2021/12/02 07:05:32;;;;;;;1.83;1.30;;;4.60;99.90;;;;;;5038610;28;20238;-70
2021/12/02 07:08:01;;;;;;;2.33;1.60;;;4.60;99.90;;;;;;5043239;28;20196;-69
2021/12/02 07:10:31;;;;;;;2.35;1.50;;;4.60;99.90;;;;;;5044577;28;20281;-69
2021/12/02 07:13:00;;;;;;;2.08;1.50;;;4.50;99.90;;;;;;5045344;28;20203;-68
2021/12/02 07:15:30;;;;;;;2.40;1.30;;;4.60;99.90;;;;;;5045433;28;20279;-69
2021/12/02 07:18:01;;;;;;;1.88;0.90;;;4.60;99.90;;;;;;5043123;28;20223;-70
2021/12/02 07:20:33;;;;;;;3.20;1.10;;;4.50;99.90;;;;;;5042797;28;20219;-69
2021/12/02 07:23:02;;;;;;;2.95;0.90;;;4.50;99.90;;;;;;5048380;28;20294;-66
2021/12/02 07:25:31;;;;;;;3.15;1.25;;;4.50;99.90;;;;;;5047985;28;20732;-68
2021/12/02 07:27:59;;;;;;;6.40;2.58;;;4.50;99.90;;;;;;5049924;28;20275;-70
2021/12/02 07:30:31;;;;;;;3.15;1.60;;;4.50;99.90;;;;;;5048435;28;20227;-68
2021/12/02 07:33:01;;;;;;;3.83;1.30;;;4.40;99.90;;;;;;5048627;28;20196;-70
2021/12/02 07:35:29;;;;;;;1.92;1.38;;;4.40;99.90;;;;;;5051057;28;20711;-68
2021/12/02 07:37:58;;;;;;;2.05;1.30;;;4.40;99.90;;;;;;5048194;28;20196;-68
2021/12/02 07:40:28;;;;;;;1.77;1.38;;;4.40;99.90;;;;;;5048322;28;20307;-68
2021/12/02 07:42:58;;;;;;;5.00;1.33;;;4.40;99.90;;;;;;5051178;28;20668;-69
2021/12/02 07:45:32;;;;;;;2.55;1.20;;;4.40;99.90;;;;;;5050356;28;20224;-70
2021/12/02 07:48:01;;;;;;;2.60;1.20;;;4.40;99.90;;;;;;5044968;28;20227;-68
2021/12/02 07:50:29;;;;;;;4.18;1.35;;;4.40;99.90;;;;;;5050133;28;20224;-68
2021/12/02 07:53:00;;;;;;;2.65;1.13;;;4.40;99.90;;;;;;5049650;28;20738;-69
2021/12/02 07:55:30;;;;;;;3.85;1.45;;;4.30;99.90;;;;;;5049459;28;20199;-68
2021/12/02 07:57:59;;;;;;;2.42;1.77;;;4.40;99.90;;;;;;5049766;28;20200;-68
2021/12/02 08:00:29;;;;;;;3.50;1.60;;;4.40;99.90;;;;;;5047917;28;20238;-68
2021/12/02 08:02:57;;;;;;;2.08;1.77;;;4.30;99.90;;;;;;5052386;28;20664;-69
2021/12/02 08:05:27;;;;;;;3.17;2.45;;;4.40;99.90;;;;;;5053344;28;20688;-70
2021/12/02 08:07:55;;;;;;;4.35;2.25;;;4.30;99.90;;;;;;5051210;28;20223;-66
2021/12/02 08:10:23;;;;;;;6.20;2.40;;;4.40;99.90;;;;;;5053682;28;20216;-69
2021/12/02 08:12:51;;;;;;;3.35;1.90;;;4.40;99.90;;;;;;5052829;28;20195;-68
2021/12/02 08:15:21;;;;;;;4.65;2.30;;;4.40;99.90;;;;;;5053211;28;20228;-70
2021/12/02 08:17:50;;;;;;;3.75;2.08;;;4.40;99.90;;;;;;5054782;28;20204;-65
2021/12/02 08:20:19;;;;;;;1.80;1.67;;;4.40;99.90;;;;;;5053704;28;20212;-69
2021/12/02 08:22:48;;;;;;;7.95;1.90;;;4.40;99.90;;;;;;5048665;28;20223;-69
2021/12/02 08:25:19;;;;;;;1.65;1.55;;;4.30;99.90;;;;;;5052278;28;20200;-69
2021/12/02 08:27:48;;;;;;;4.65;1.80;;;4.30;99.90;;;;;;5046763;28;20188;-69
2021/12/02 08:30:19;;;;;;;3.10;2.10;;;4.30;99.90;;;;;;5054161;28;20204;-69
2021/12/02 08:32:47;;;;;;;5.30;2.80;;;4.30;99.90;;;;;;5049483;28;20224;-67
2021/12/02 08:35:15;;;;;;;4.95;2.25;;;4.40;99.90;;;;;;5054626;28;20282;-68
2021/12/02 08:37:45;;;;;;;2.75;2.22;;;4.40;99.90;;;;;;5052784;28;20223;-68
2021/12/02 08:40:17;;;;;;;5.32;2.55;;;4.40;99.90;;;;;;5052028;28;20255;-68
2021/12/02 08:42:46;;;;;;;6.70;3.05;;;4.40;99.90;;;;;;5051977;28;20269;-68
2021/12/02 08:45:15;;;;;;;3.45;2.55;;;4.40;99.90;;;;;;5052562;28;20205;-69
2021/12/02 08:47:45;;;;;;;3.95;2.95;;;4.40;99.90;;;;;;5052102;28;20207;-69
2021/12/02 08:50:15;;;;;;;9.35;2.72;;;4.50;99.90;;;;;;5052622;28;20219;-70
2021/12/02 08:52:43;;;;;;;4.10;2.97;;;4.50;99.90;;;;;;5049630;28;20228;-70
2021/12/02 08:55:12;;;;;;;2.80;2.60;;;4.50;99.90;;;;;;5052408;28;20236;-69
2021/12/02 08:57:48;;;;;;;3.17;2.67;;;4.60;99.90;;;;;;5049014;28;20761;-66
2021/12/02 09:00:18;;;;;;;4.65;3.40;;;4.60;99.90;;;;;;5051839;28;20314;-70
2021/12/02 09:02:46;;;;;;;4.22;2.35;;;4.70;99.90;;;;;;5052009;28;20210;-68
2021/12/02 09:05:15;;;;;;;2.70;2.50;;;4.70;99.90;;;;;;5052686;28;20206;-66
2021/12/02 09:07:43;;;;;;;4.45;2.30;;;4.70;99.90;;;;;;5053840;28;20246;-70
2021/12/02 09:10:31;;;;;;;4.05;2.75;;;4.70;99.90;;;;;;5050937;28;20223;-68
2021/12/02 09:13:03;;;;;;;4.32;2.83;;;4.80;99.90;;;;;;5051267;28;20247;-68
2021/12/02 09:15:31;;;;;;;6.68;2.72;;;4.90;99.90;;;;;;5052485;28;20691;-69
2021/12/02 09:17:59;;;;;;;3.33;2.63;;;4.90;99.90;;;;;;5045117;28;20685;-69
2021/12/02 09:20:27;;;;;;;4.93;3.28;;;4.90;99.90;;;;;;5051484;28;20255;-71
2021/12/02 09:22:55;;;;;;;4.70;3.60;;;4.90;99.90;;;;;;5051593;28;20726;-70
2021/12/02 09:25:23;;;;;;;3.33;2.88;;;5.00;99.90;;;;;;5051465;28;20323;-69
2021/12/02 09:27:51;;;;;;;2.47;2.28;;;5.00;99.90;;;;;;5050294;28;20223;-68
2021/12/02 09:30:20;;;;;;;4.03;2.90;;;5.20;99.90;;;;;;5053377;28;20283;-69
2021/12/02 09:32:48;;;;;;;2.72;2.53;;;5.20;99.90;;;;;;5041423;28;20279;-69
2021/12/02 09:35:16;;;;;;;3.35;2.05;;;5.40;99.90;;;;;;5052013;28;20200;-69
2021/12/02 09:37:44;;;;;;;5.10;3.10;;;5.50;99.90;;;;;;5052116;28;20665;-69
2021/12/02 09:40:15;;;;;;;3.35;1.80;;;5.50;99.90;;;;;;5052798;28;20243;-69
2021/12/02 09:42:44;;;;;;;5.55;3.30;;;5.50;99.90;;;;;;5050650;28;20228;-69
2021/12/02 09:45:13;;;;;;;1.90;1.75;;;5.50;99.90;;;;;;5050483;28;20236;-68
2021/12/02 09:47:45;;;;;;;2.80;2.03;;;5.50;99.90;;;;;;5052068;28;20196;-69
2021/12/02 09:50:19;;;;;;;3.47;2.25;;;5.60;99.90;;;;;;5050128;28;20219;-69
2021/12/02 09:52:47;;;;;;;5.20;2.13;;;5.60;99.90;;;;;;5047955;28;20186;-69
2021/12/02 09:55:21;;;;;;;2.00;1.90;;;5.70;99.90;;;;;;5050824;28;20234;-69
2021/12/02 09:57:54;;;;;;;3.15;2.00;;;5.70;99.90;;;;;;5051639;28;20250;-70
2021/12/02 10:00:29;;;;;;;3.00;2.42;;;5.70;99.90;;;;;;5052666;28;20208;-69
2021/12/02 10:03:03;;;;;;;3.70;1.95;;;5.70;99.90;;;;;;5051317;28;20282;-69
2021/12/02 10:05:38;;;;;;;3.90;1.83;;;5.50;99.90;;;;;;5053079;28;20290;-68
2021/12/02 10:08:09;;;;;;;2.63;1.40;;;5.30;99.90;;;;;;5049889;28;20226;-67
2021/12/02 10:10:51;;;;;;;1.10;0.90;;;5.20;99.90;;;;;;5050920;28;20265;-68
2021/12/02 10:13:27;;;;;;;4.03;1.52;;;5.00;99.90;;;;;;5050926;28;20232;-69
2021/12/02 10:16:16;;;;;;;1.60;1.48;;;4.90;99.90;;;;;;5045970;28;20207;-69
2021/12/02 10:18:55;;;;;;;2.97;1.45;;;4.90;99.90;;;;;;5050975;28;20204;-70
2021/12/02 10:21:29;;;;;;;2.35;1.10;;;4.90;99.90;;;;;;5052184;28;20302;-70
2021/12/02 10:24:03;;;;;;;3.08;2.10;;;5.00;99.90;;;;;;5049293;28;20217;-69
2021/12/02 10:26:37;;;;;;;3.83;1.55;;;5.00;99.90;;;;;;5051882;28;20238;-70
2021/12/02 10:29:14;;;;;;;3.22;2.05;;;5.10;99.90;;;;;;5050404;28;20226;-69
2021/12/02 10:31:46;;;;;;;1.20;1.08;;;5.10;99.90;;;;;;5048240;28;20260;-69
2021/12/02 10:34:18;;;;;;;1.60;0.98;;;5.10;99.90;;;;;;5047401;28;20196;-69
2021/12/02 10:36:49;;;;;;;2.20;0.90;;;5.20;99.90;;;;;;5047509;28;20204;-68
2021/12/02 10:39:20;;;;;;;1.55;1.08;;;5.20;99.90;;;;;;5050522;28;20779;-68
2021/12/02 10:41:58;;;;;;;1.27;1.17;;;5.30;99.90;;;;;;5043568;28;20649;-69
2021/12/02 10:44:30;;;;;;;2.17;0.80;;;5.30;99.90;;;;;;5049901;28;20226;-68
2021/12/02 10:47:02;;;;;;;1.20;0.90;;;5.20;99.90;;;;;;5049173;28;20212;-68
2021/12/02 10:49:41;;;;;;;1.75;1.10;;;5.20;99.90;;;;;;5046588;28;20196;-68
2021/12/02 10:52:11;;;;;;;1.40;0.95;;;5.20;99.90;;;;;;5049659;28;20223;-71
2021/12/02 10:54:42;;;;;;;2.80;1.20;;;5.20;99.90;;;;;;5046727;28;20707;-68
2021/12/02 10:57:12;;;;;;;1.90;1.13;;;5.10;99.90;;;;;;5052207;28;20200;-68
2021/12/02 10:59:44;;;;;;;2.75;0.98;;;5.10;99.90;;;;;;5051051;28;20290;-69
2021/12/02 11:02:25;;;;;;;3.00;1.60;;;5.20;99.90;;;;;;5047245;28;20638;-69
2021/12/02 11:04:59;;;;;;;2.00;1.15;;;5.20;99.90;;;;;;5051492;28;20196;-70
2021/12/02 11:07:29;;;;;;;2.13;1.40;;;5.20;99.90;;;;;;5049507;28;20553;-69
2021/12/02 11:09:59;;;;;;;2.25;1.13;;;5.30;99.90;;;;;;5050981;28;20231;-68
2021/12/02 11:12:29;;;;;;;2.00;1.00;;;5.40;99.90;;;;;;5049608;28;20212;-69
2021/12/02 11:15:14;;;;;;;3.70;1.30;;;5.70;99.90;;;;;;5049407;28;20230;-68
2021/12/02 11:17:46;;;;;;;1.52;1.20;;;6.30;99.90;;;;;;5051407;28;20226;-69
2021/12/02 11:20:21;;;;;;;2.40;1.10;;;7.10;99.90;;;;;;5049215;28;20759;-69
2021/12/02 11:22:55;;;;;;;1.70;0.80;;;7.60;99.90;;;;;;5042032;28;20226;-72
2021/12/02 11:25:23;;;;;;;1.45;1.25;;;7.50;99.90;;;;;;5047911;28;20232;-70
2021/12/02 11:27:53;;;;;;;5.03;0.80;;;7.50;99.90;;;;;;5047488;28;20307;-70
2021/12/02 11:30:23;;;;;;;2.00;1.30;;;7.40;99.90;;;;;;5049316;28;20632;-68
2021/12/02 11:32:55;;;;;;;1.50;1.00;;;7.30;99.90;;;;;;5047504;28;20203;-68
2021/12/02 11:35:29;;;;;;;2.13;1.30;;;7.20;99.90;;;;;;5057531;28;20677;-70
2021/12/02 11:38:02;;;;;;;3.22;1.15;;;7.00;99.90;;;;;;5049313;28;20257;-69
2021/12/02 11:40:33;;;;;;;1.30;0.95;;;6.70;99.90;;;;;;5048045;28;20230;-69
2021/12/02 11:43:02;;;;;;;1.30;0.80;;;6.50;99.90;;;;;;5048352;28;20641;-69
2021/12/02 11:45:33;;;;;;;3.88;1.15;;;6.40;99.90;;;;;;5049407;28;20250;-68
2021/12/02 11:48:01;;;;;;;2.35;0.60;;;6.40;99.90;;;;;;5050741;28;20199;-68
2021/12/02 11:50:31;;;;;;;2.47;0.85;;;6.70;99.90;;;;;;5048499;28;20274;-68
2021/12/02 11:52:59;;;;;;;0.80;0.70;;;7.30;99.90;;;;;;5047605;28;20230;-68
2021/12/02 11:55:29;;;;;;;3.92;1.00;;;8.10;99.90;;;;;;5045620;28;20227;-69
2021/12/02 11:57:58;;;;;;;1.90;1.10;;;9.10;99.90;;;;;;5049812;28;20229;-69
2021/12/02 12:00:28;;;;;;;2.85;1.20;;;10.10;99.90;;;;;;5049719;28;20223;-69
2021/12/02 12:03:00;;;;;;;1.10;0.90;;;10.30;99.90;;;;;;5049119;28;20311;-69
2021/12/02 12:05:32;;;;;;;2.53;1.00;;;10.10;99.90;;;;;;5049268;28;20283;-68
2021/12/02 12:08:01;;;;;;;1.40;0.90;;;9.60;99.90;;;;;;5049334;28;20200;-71
2021/12/02 12:10:34;;;;;;;3.08;1.13;;;8.80;99.90;;;;;;5046689;28;20223;-69
2021/12/02 12:13:17;;;;;;;1.20;1.00;;;8.40;99.90;;;;;;5050500;28;20200;-69
2021/12/02 12:15:47;;;;;;;2.35;1.02;;;8.00;99.90;;;;;;5041585;28;20215;-69
2021/12/02 12:18:39;;;;;;;1.00;0.90;;;7.50;99.90;;;;;;5049252;28;20227;-69
2021/12/02 12:21:11;;;;;;;2.63;1.30;;;6.90;99.90;;;;;;5049719;28;20652;-70
2021/12/02 12:24:02;;;;;;;1.88;1.25;;;6.50;99.90;;;;;;5049025;28;20616;-68
2021/12/02 12:26:35;;;;;;;1.55;1.45;;;6.20;99.90;;;;;;5048216;28;20207;-69
2021/12/02 12:29:31;;;;;;;2.42;1.55;;;5.70;99.90;;;;;;5048643;28;20711;-70
2021/12/02 12:38:19;;;;;;;8.18;2.28;;;5.50;99.90;;;;;;5043425;28;20206;-69
2021/12/02 12:40:49;;;;;;;1.60;1.50;;;5.50;99.90;;;;;;5040903;28;20240;-68
2021/12/02 12:43:24;;;;;;;2.03;1.70;;;5.40;99.90;;;;;;5049986;28;20239;-68
2021/12/02 12:46:09;;;;;;;2.13;1.80;;;5.50;99.90;;;;;;5048267;28;20298;-67
2021/12/02 12:48:37;;;;;;;1.80;1.70;;;5.50;99.90;;;;;;5032988;28;20935;-67
2021/12/02 12:51:17;;;;;;;1.90;1.80;;;5.50;99.90;;;;;;5037053;28;20250;-67
2021/12/02 12:53:49;;;;;;;2.03;1.80;;;5.50;99.90;;;;;;5046668;28;20196;-67
2021/12/02 12:56:19;;;;;;;2.20;1.90;;;5.50;99.90;;;;;;5050510;28;20246;-66
2021/12/02 12:59:08;;;;;;;2.00;1.90;;;5.50;99.90;;;;;;5051612;28;20315;-66
2021/12/02 13:01:38;;;;;;;1.80;1.70;;;5.50;99.90;;;;;;5050180;28;20315;-69
2021/12/02 13:04:13;;;;;;;2.78;1.80;;;5.50;99.90;;;;;;5052316;28;20204;-68
2021/12/02 13:06:50;;;;;;;3.25;2.13;;;5.60;99.90;;;;;;5050126;28;20199;-68
2021/12/02 13:09:38;;;;;;;1.75;1.65;;;5.40;99.90;;;;;;5053079;28;20196;-68
2021/12/02 13:12:07;;;;;;;1.60;1.50;;;5.50;99.90;;;;;;5040602;28;20704;-69
2021/12/02 13:14:35;;;;;;;6.05;1.90;;;5.40;99.90;;;;;;5051642;28;20231;-69
2021/12/02 13:17:37;;;;;;;2.00;1.80;;;5.30;99.90;;;;;;5051840;28;20196;-67
2021/12/02 13:20:18;;;;;;;2.58;2.38;;;5.20;99.90;;;;;;5047327;28;20644;-67
2021/12/02 13:22:47;;;;;;;2.97;2.40;;;5.20;99.90;;;;;;5051353;28;20243;-67
2021/12/02 13:25:43;;;;;;;2.45;2.28;;;5.20;99.90;;;;;;5053003;28;20224;-65
2021/12/02 13:28:15;;;;;;;2.55;2.35;;;5.30;99.90;;;;;;5052015;28;20245;-67